sensor_id;sensor_type;location;lat;lon;timestamp;pressure;altitude;pressure_sealevel;temperature;humidity
44044;BME280;29709;52.396;16.796;2023-06-19T00:02:40;101610.51;;;16.56;71.92
44044;BME280;29709;52.396;16.796;2023-06-19T00:05:53;101613.48;;;16.54;71.83
44044;BME280;29709;52.396;16.796;2023-06-19T00:09:07;101612.62;;;16.54;70.08
44044;BME280;29709;52.396;16.796;2023-06-19T00:12:20;101611.95;;;16.52;71.19
44044;BME280;29709;52.396;16.796;2023-06-19T00:15:33;101606.12;;;16.47;72.52
44044;BME280;29709;52.396;16.796;2023-06-19T00:18:46;101611.27;;;16.50;71.38
44044;BME280;29709;52.396;16.796;2023-06-19T00:22:00;101604.20;;;16.47;70.10
44044;BME280;29709;52.396;16.796;2023-06-19T00:25:13;101605.12;;;16.39;70.27
44044;BME280;29709;52.396;16.796;2023-06-19T00:28:30;101607.10;;;16.31;68.67
44044;BME280;29709;52.396;16.796;2023-06-19T00:31:43;101605.93;;;16.25;72.65
44044;BME280;29709;52.396;16.796;2023-06-19T00:34:56;101600.75;;;16.22;69.25
44044;BME280;29709;52.396;16.796;2023-06-19T00:38:10;101600.09;;;16.20;72.53
44044;BME280;29709;52.396;16.796;2023-06-19T00:41:26;101600.94;;;16.21;72.35
44044;BME280;29709;52.396;16.796;2023-06-19T00:44:40;101595.41;;;16.21;70.84
44044;BME280;29709;52.396;16.796;2023-06-19T00:47:54;101592.01;;;16.10;72.30
44044;BME280;29709;52.396;16.796;2023-06-19T00:51:08;101579.58;;;16.06;70.65
44044;BME280;29709;52.396;16.796;2023-06-19T00:54:22;101584.27;;;16.06;72.54
44044;BME280;29709;52.396;16.796;2023-06-19T00:57:35;101580.62;;;16.05;73.02
44044;BME280;29709;52.396;16.796;2023-06-19T01:00:50;101585.13;;;16.06;72.63
44044;BME280;29709;52.396;16.796;2023-06-19T01:04:03;101581.65;;;16.04;72.41
44044;BME280;29709;52.396;16.796;2023-06-19T01:14:09;101567.35;;;15.93;71.16
44044;BME280;29709;52.396;16.796;2023-06-19T01:17:29;101576.24;;;15.88;71.05
44044;BME280;29709;52.396;16.796;2023-06-19T01:20:42;101577.48;;;15.85;72.55
44044;BME280;29709;52.396;16.796;2023-06-19T01:23:55;101574.38;;;15.80;72.04
44044;BME280;29709;52.396;16.796;2023-06-19T01:27:08;101574.28;;;15.74;71.33
44044;BME280;29709;52.396;16.796;2023-06-19T01:30:23;101570.45;;;15.75;71.23
44044;BME280;29709;52.396;16.796;2023-06-19T01:33:37;101569.41;;;15.76;72.62
44044;BME280;29709;52.396;16.796;2023-06-19T01:36:54;101570.94;;;15.78;72.71
44044;BME280;29709;52.396;16.796;2023-06-19T01:40:11;101573.03;;;15.76;71.39
44044;BME280;29709;52.396;16.796;2023-06-19T01:43:26;101568.02;;;15.72;73.51
44044;BME280;29709;52.396;16.796;2023-06-19T01:46:40;101574.62;;;15.71;73.27
44044;BME280;29709;52.396;16.796;2023-06-19T01:49:53;101572.89;;;15.70;70.06
44044;BME280;29709;52.396;16.796;2023-06-19T01:53:06;101577.95;;;15.66;73.28
44044;BME280;29709;52.396;16.796;2023-06-19T01:56:19;101575.37;;;15.65;70.49
44044;BME280;29709;52.396;16.796;2023-06-19T01:59:33;101568.59;;;15.59;73.21
44044;BME280;29709;52.396;16.796;2023-06-19T02:02:46;101572.98;;;15.53;73.22
44044;BME280;29709;52.396;16.796;2023-06-19T02:05:59;101579.73;;;15.51;73.92
44044;BME280;29709;52.396;16.796;2023-06-19T02:09:12;101579.04;;;15.49;73.46
44044;BME280;29709;52.396;16.796;2023-06-19T02:12:25;101571.98;;;15.46;73.55
44044;BME280;29709;52.396;16.796;2023-06-19T02:15:38;101574.93;;;15.45;73.54
44044;BME280;29709;52.396;16.796;2023-06-19T02:18:51;101584.44;;;15.42;70.64
44044;BME280;29709;52.396;16.796;2023-06-19T02:22:05;101586.72;;;15.39;73.18
44044;BME280;29709;52.396;16.796;2023-06-19T02:25:19;101584.14;;;15.37;73.54
44044;BME280;29709;52.396;16.796;2023-06-19T02:28:32;101586.22;;;15.35;74.33
44044;BME280;29709;52.396;16.796;2023-06-19T02:31:46;101586.60;;;15.32;73.27
44044;BME280;29709;52.396;16.796;2023-06-19T02:34:59;101582.44;;;15.28;74.25
44044;BME280;29709;52.396;16.796;2023-06-19T02:38:13;101585.21;;;15.28;71.91
44044;BME280;29709;52.396;16.796;2023-06-19T02:41:27;101586.45;;;15.25;74.80
44044;BME280;29709;52.396;16.796;2023-06-19T02:44:40;101585.59;;;15.25;73.76
44044;BME280;29709;52.396;16.796;2023-06-19T02:47:56;101587.13;;;15.27;73.71
44044;BME280;29709;52.396;16.796;2023-06-19T02:51:09;101591.42;;;15.30;74.05
44044;BME280;29709;52.396;16.796;2023-06-19T02:54:22;101590.75;;;15.28;74.76
44044;BME280;29709;52.396;16.796;2023-06-19T02:57:43;101591.80;;;15.27;73.37
44044;BME280;29709;52.396;16.796;2023-06-19T03:00:58;101580.05;;;15.25;74.76
44044;BME280;29709;52.396;16.796;2023-06-19T03:04:11;101584.35;;;15.27;74.03
44044;BME280;29709;52.396;16.796;2023-06-19T03:07:26;101584.35;;;15.27;74.61
44044;BME280;29709;52.396;16.796;2023-06-19T03:10:41;101586.76;;;15.30;74.44
44044;BME280;29709;52.396;16.796;2023-06-19T03:17:20;101581.21;;;15.30;75.10
44044;BME280;29709;52.396;16.796;2023-06-19T03:20:33;101572.20;;;15.37;74.88
44044;BME280;29709;52.396;16.796;2023-06-19T03:23:47;101568.87;;;15.41;74.51
44044;BME280;29709;52.396;16.796;2023-06-19T03:27:00;101571.98;;;15.46;75.00
44044;BME280;29709;52.396;16.796;2023-06-19T03:30:14;101566.59;;;15.53;73.81
44044;BME280;29709;52.396;16.796;2023-06-19T03:33:31;101570.35;;;15.60;74.29
44044;BME280;29709;52.396;16.796;2023-06-19T03:36:44;101568.96;;;15.64;74.24
44044;BME280;29709;52.396;16.796;2023-06-19T03:39:57;101567.16;;;15.71;75.09
44044;BME280;29709;52.396;16.796;2023-06-19T03:43:10;101558.80;;;15.79;75.04
44044;BME280;29709;52.396;16.796;2023-06-19T03:46:24;101561.81;;;15.93;74.77
44044;BME280;29709;52.396;16.796;2023-06-19T03:49:37;101560.37;;;16.05;75.26
44044;BME280;29709;52.396;16.796;2023-06-19T03:52:50;101564.22;;;16.19;76.14
44044;BME280;29709;52.396;16.796;2023-06-19T03:56:03;101552.87;;;16.28;75.72
44044;BME280;29709;52.396;16.796;2023-06-19T03:59:16;101563.51;;;16.39;75.76
44044;BME280;29709;52.396;16.796;2023-06-19T04:02:30;101569.94;;;16.55;75.87
44044;BME280;29709;52.396;16.796;2023-06-19T04:05:43;101568.29;;;16.68;75.40
44044;BME280;29709;52.396;16.796;2023-06-19T04:08:57;101568.18;;;16.77;75.67
44044;BME280;29709;52.396;16.796;2023-06-19T04:12:10;101572.89;;;16.91;76.77
44044;BME280;29709;52.396;16.796;2023-06-19T04:15:23;101568.38;;;17.05;74.94
44044;BME280;29709;52.396;16.796;2023-06-19T04:18:36;101578.60;;;17.19;75.87
44044;BME280;29709;52.396;16.796;2023-06-19T04:21:49;101577.15;;;17.38;74.62
44044;BME280;29709;52.396;16.796;2023-06-19T04:25:03;101581.16;;;17.50;74.05
44044;BME280;29709;52.396;16.796;2023-06-19T04:28:16;101579.98;;;17.59;74.60
44044;BME280;29709;52.396;16.796;2023-06-19T04:31:30;101581.22;;;17.71;73.26
44044;BME280;29709;52.396;16.796;2023-06-19T04:34:43;101585.61;;;17.80;72.70
44044;BME280;29709;52.396;16.796;2023-06-19T04:37:58;101574.82;;;17.92;73.88
44044;BME280;29709;52.396;16.796;2023-06-19T04:41:14;101587.42;;;18.09;70.69
44044;BME280;29709;52.396;16.796;2023-06-19T04:44:27;101594.12;;;18.15;71.34
44044;BME280;29709;52.396;16.796;2023-06-19T04:47:46;101601.74;;;18.28;72.97
44044;BME280;29709;52.396;16.796;2023-06-19T04:50:59;101597.34;;;18.40;73.16
44044;BME280;29709;52.396;16.796;2023-06-19T04:54:13;101596.39;;;18.54;73.08
44044;BME280;29709;52.396;16.796;2023-06-19T04:57:27;101595.01;;;18.65;72.03
44044;BME280;29709;52.396;16.796;2023-06-19T05:00:40;101587.21;;;18.82;72.14
44044;BME280;29709;52.396;16.796;2023-06-19T05:03:54;101586.70;;;18.99;71.35
44044;BME280;29709;52.396;16.796;2023-06-19T05:07:10;101593.85;;;19.15;71.00
44044;BME280;29709;52.396;16.796;2023-06-19T05:10:27;101593.59;;;19.45;71.45
44044;BME280;29709;52.396;16.796;2023-06-19T05:13:41;101589.69;;;19.80;69.86
44044;BME280;29709;52.396;16.796;2023-06-19T05:16:54;101598.78;;;20.15;69.81
44044;BME280;29709;52.396;16.796;2023-06-19T05:20:08;101602.06;;;20.59;67.79
44044;BME280;29709;52.396;16.796;2023-06-19T05:23:22;101600.96;;;20.99;67.64
44044;BME280;29709;52.396;16.796;2023-06-19T05:26:35;101600.04;;;21.32;65.85
44044;BME280;29709;52.396;16.796;2023-06-19T05:29:48;101594.69;;;21.75;65.68
44044;BME280;29709;52.396;16.796;2023-06-19T05:33:01;101605.44;;;22.23;63.31
44044;BME280;29709;52.396;16.796;2023-06-19T05:36:15;101610.78;;;22.56;62.68
44044;BME280;29709;52.396;16.796;2023-06-19T05:39:28;101618.56;;;22.79;60.60
44044;BME280;29709;52.396;16.796;2023-06-19T05:42:42;101616.16;;;23.08;59.07
44044;BME280;29709;52.396;16.796;2023-06-19T05:45:56;101614.87;;;23.28;60.19
44044;BME280;29709;52.396;16.796;2023-06-19T05:49:12;101618.12;;;23.44;59.42
44044;BME280;29709;52.396;16.796;2023-06-19T05:52:25;101619.08;;;23.74;57.94
44044;BME280;29709;52.396;16.796;2023-06-19T05:55:38;101627.65;;;23.98;57.73
44044;BME280;29709;52.396;16.796;2023-06-19T05:58:52;101625.63;;;24.16;57.21
44044;BME280;29709;52.396;16.796;2023-06-19T06:02:06;101630.52;;;24.39;56.19
44044;BME280;29709;52.396;16.796;2023-06-19T06:05:20;101626.30;;;24.60;55.02
44044;BME280;29709;52.396;16.796;2023-06-19T06:08:34;101630.34;;;24.88;54.46
44044;BME280;29709;52.396;16.796;2023-06-19T06:11:49;101634.54;;;25.09;54.02
44044;BME280;29709;52.396;16.796;2023-06-19T06:15:03;101638.83;;;25.35;52.91
44044;BME280;29709;52.396;16.796;2023-06-19T06:18:19;101626.77;;;25.62;54.11
44044;BME280;29709;52.396;16.796;2023-06-19T06:21:33;101636.32;;;25.73;51.11
44044;BME280;29709;52.396;16.796;2023-06-19T06:24:48;101639.94;;;25.97;51.88
44044;BME280;29709;52.396;16.796;2023-06-19T06:28:02;101636.91;;;26.15;51.79
44044;BME280;29709;52.396;16.796;2023-06-19T06:31:15;101640.37;;;26.34;50.23
44044;BME280;29709;52.396;16.796;2023-06-19T06:34:28;101644.45;;;26.38;48.36
44044;BME280;29709;52.396;16.796;2023-06-19T06:37:41;101645.68;;;26.59;49.51
44044;BME280;29709;52.396;16.796;2023-06-19T06:40:58;101645.33;;;26.72;48.36
44044;BME280;29709;52.396;16.796;2023-06-19T06:44:12;101650.89;;;26.84;47.53
44044;BME280;29709;52.396;16.796;2023-06-19T06:47:25;101646.11;;;27.01;47.95
44044;BME280;29709;52.396;16.796;2023-06-19T06:50:38;101648.54;;;27.10;47.42
44044;BME280;29709;52.396;16.796;2023-06-19T06:53:51;101640.83;;;27.22;47.07
44044;BME280;29709;52.396;16.796;2023-06-19T06:57:05;101637.68;;;27.40;44.87
44044;BME280;29709;52.396;16.796;2023-06-19T07:00:18;101631.73;;;27.58;45.58
44044;BME280;29709;52.396;16.796;2023-06-19T07:03:32;101635.18;;;27.82;45.27
44044;BME280;29709;52.396;16.796;2023-06-19T07:06:45;101644.01;;;27.86;42.10
44044;BME280;29709;52.396;16.796;2023-06-19T07:09:58;101643.71;;;28.09;43.14
44044;BME280;29709;52.396;16.796;2023-06-19T07:13:18;101633.19;;;28.27;42.11
44044;BME280;29709;52.396;16.796;2023-06-19T07:16:31;101632.74;;;28.35;40.94
44044;BME280;29709;52.396;16.796;2023-06-19T07:19:44;101633.63;;;28.40;39.64
44044;BME280;29709;52.396;16.796;2023-06-19T07:22:57;101637.48;;;28.56;37.85
44044;BME280;29709;52.396;16.796;2023-06-19T07:26:11;101639.66;;;28.81;38.05
44044;BME280;29709;52.396;16.796;2023-06-19T07:29:24;101635.45;;;28.84;36.72
44044;BME280;29709;52.396;16.796;2023-06-19T07:32:39;101631.85;;;28.88;36.53
44044;BME280;29709;52.396;16.796;2023-06-19T07:35:52;101630.54;;;29.01;36.93
44044;BME280;29709;52.396;16.796;2023-06-19T07:39:14;101636.01;;;29.18;38.13
44044;BME280;29709;52.396;16.796;2023-06-19T07:42:27;101639.95;;;29.12;35.45
44044;BME280;29709;52.396;16.796;2023-06-19T07:45:40;101639.33;;;29.04;36.30
44044;BME280;29709;52.396;16.796;2023-06-19T07:48:53;101637.62;;;29.03;36.64
44044;BME280;29709;52.396;16.796;2023-06-19T07:52:07;101645.83;;;29.05;37.26
44044;BME280;29709;52.396;16.796;2023-06-19T07:55:22;101643.91;;;29.11;36.14
44044;BME280;29709;52.396;16.796;2023-06-19T07:58:35;101648.45;;;29.17;36.25
44044;BME280;29709;52.396;16.796;2023-06-19T08:01:48;101642.09;;;29.37;36.31
44044;BME280;29709;52.396;16.796;2023-06-19T08:05:01;101647.62;;;29.58;36.02
44044;BME280;29709;52.396;16.796;2023-06-19T08:08:15;101644.56;;;29.65;34.97
44044;BME280;29709;52.396;16.796;2023-06-19T08:11:29;101636.67;;;29.77;35.18
44044;BME280;29709;52.396;16.796;2023-06-19T08:14:42;101639.30;;;29.99;34.35
44044;BME280;29709;52.396;16.796;2023-06-19T08:17:55;101637.93;;;30.02;34.42
44044;BME280;29709;52.396;16.796;2023-06-19T08:21:08;101632.83;;;30.04;33.91
44044;BME280;29709;52.396;16.796;2023-06-19T08:24:21;101634.27;;;30.06;33.71
44044;BME280;29709;52.396;16.796;2023-06-19T08:27:35;101626.38;;;30.29;34.21
44044;BME280;29709;52.396;16.796;2023-06-19T08:31:22;101632.00;;;30.08;32.28
44044;BME280;29709;52.396;16.796;2023-06-19T08:34:41;101628.91;;;30.20;33.80
44044;BME280;29709;52.396;16.796;2023-06-19T08:37:54;101620.72;;;30.24;32.12
44044;BME280;29709;52.396;16.796;2023-06-19T08:41:08;101625.82;;;30.32;32.88
44044;BME280;29709;52.396;16.796;2023-06-19T08:44:21;101620.77;;;30.54;34.12
44044;BME280;29709;52.396;16.796;2023-06-19T08:47:34;101619.66;;;30.70;32.58
44044;BME280;29709;52.396;16.796;2023-06-19T08:50:47;101611.41;;;30.84;32.27
44044;BME280;29709;52.396;16.796;2023-06-19T08:54:02;101615.98;;;30.90;32.93
44044;BME280;29709;52.396;16.796;2023-06-19T08:57:19;101610.85;;;31.08;32.84
44044;BME280;29709;52.396;16.796;2023-06-19T09:00:33;101617.67;;;31.07;29.66
44044;BME280;29709;52.396;16.796;2023-06-19T09:03:48;101606.05;;;30.88;32.08
44044;BME280;29709;52.396;16.796;2023-06-19T09:07:07;101602.93;;;30.69;31.49
44044;BME280;29709;52.396;16.796;2023-06-19T09:10:20;101599.23;;;30.79;32.43
44044;BME280;29709;52.396;16.796;2023-06-19T09:13:36;101604.90;;;30.84;32.18
44044;BME280;29709;52.396;16.796;2023-06-19T09:16:49;101600.64;;;30.81;31.64
44044;BME280;29709;52.396;16.796;2023-06-19T09:20:03;101601.23;;;30.68;30.99
44044;BME280;29709;52.396;16.796;2023-06-19T09:23:18;101609.45;;;30.90;31.93
44044;BME280;29709;52.396;16.796;2023-06-19T09:26:31;101605.73;;;30.94;30.06
44044;BME280;29709;52.396;16.796;2023-06-19T09:29:47;101608.88;;;30.98;31.25
44044;BME280;29709;52.396;16.796;2023-06-19T09:33:08;101610.57;;;30.84;31.03
44044;BME280;29709;52.396;16.796;2023-06-19T09:36:21;101599.23;;;30.79;30.82
44044;BME280;29709;52.396;16.796;2023-06-19T09:39:37;101600.34;;;30.57;30.73
44044;BME280;29709;52.396;16.796;2023-06-19T09:42:54;101586.97;;;30.27;30.23
44044;BME280;29709;52.396;16.796;2023-06-19T09:46:09;101592.37;;;30.24;29.88
44044;BME280;29709;52.396;16.796;2023-06-19T09:49:28;101593.79;;;30.52;31.25
44044;BME280;29709;52.396;16.796;2023-06-19T09:52:45;101590.66;;;30.53;30.17
44044;BME280;29709;52.396;16.796;2023-06-19T09:55:58;101585.59;;;30.55;29.80
44044;BME280;29709;52.396;16.796;2023-06-19T09:59:11;101588.71;;;30.74;29.91
44044;BME280;29709;52.396;16.796;2023-06-19T10:02:27;101595.82;;;30.97;29.27
44044;BME280;29709;52.396;16.796;2023-06-19T10:05:40;101592.12;;;30.91;26.53
44044;BME280;29709;52.396;16.796;2023-06-19T10:08:53;101589.85;;;30.83;27.96
44044;BME280;29709;52.396;16.796;2023-06-19T10:12:12;101589.58;;;30.90;27.98
44044;BME280;29709;52.396;16.796;2023-06-19T10:15:27;101587.28;;;31.02;27.78
44044;BME280;29709;52.396;16.796;2023-06-19T10:18:45;101592.11;;;31.22;27.73
44044;BME280;29709;52.396;16.796;2023-06-19T10:22:03;101592.95;;;31.17;28.06
44044;BME280;29709;52.396;16.796;2023-06-19T10:25:23;101593.82;;;31.08;26.76
44044;BME280;29709;52.396;16.796;2023-06-19T10:28:37;101588.98;;;31.28;28.04
44044;BME280;29709;52.396;16.796;2023-06-19T10:31:50;101587.21;;;31.43;28.33
44044;BME280;29709;52.396;16.796;2023-06-19T10:35:11;101588.40;;;31.31;27.90
44044;BME280;29709;52.396;16.796;2023-06-19T10:38:26;101588.91;;;31.49;28.14
44044;BME280;29709;52.396;16.796;2023-06-19T10:41:40;101589.98;;;31.68;28.15
44044;BME280;29709;52.396;16.796;2023-06-19T10:45:01;101586.48;;;31.92;27.34
44044;BME280;29709;52.396;16.796;2023-06-19T10:48:22;101581.34;;;31.94;26.24
44044;BME280;29709;52.396;16.796;2023-06-19T10:51:41;101581.90;;;31.96;27.57
44044;BME280;29709;52.396;16.796;2023-06-19T10:54:57;101570.38;;;32.21;28.01
44044;BME280;29709;52.396;16.796;2023-06-19T10:58:10;101577.05;;;32.45;27.21
44044;BME280;29709;52.396;16.796;2023-06-19T11:04:48;101567.34;;;32.52;26.85
44044;BME280;29709;52.396;16.796;2023-06-19T11:08:02;101575.13;;;32.70;27.24
44044;BME280;29709;52.396;16.796;2023-06-19T11:11:15;101570.55;;;32.74;26.75
44044;BME280;29709;52.396;16.796;2023-06-19T11:14:29;101581.43;;;32.67;26.01
44044;BME280;29709;52.396;16.796;2023-06-19T11:17:43;101575.42;;;32.68;27.01
44044;BME280;29709;52.396;16.796;2023-06-19T11:20:56;101569.49;;;32.65;26.69
44044;BME280;29709;52.396;16.796;2023-06-19T11:24:13;101564.13;;;32.58;25.53
44044;BME280;29709;52.396;16.796;2023-06-19T11:27:26;101559.20;;;32.69;25.67
44044;BME280;29709;52.396;16.796;2023-06-19T11:30:43;101558.64;;;32.67;26.81
44044;BME280;29709;52.396;16.796;2023-06-19T11:33:59;101552.19;;;32.56;26.98
44044;BME280;29709;52.396;16.796;2023-06-19T11:37:16;101556.83;;;32.47;27.55
44044;BME280;29709;52.396;16.796;2023-06-19T11:40:40;101551.44;;;32.45;27.92
44044;BME280;29709;52.396;16.796;2023-06-19T11:44:03;101552.97;;;32.33;26.82
44044;BME280;29709;52.396;16.796;2023-06-19T11:47:18;101542.79;;;32.22;27.81
44044;BME280;29709;52.396;16.796;2023-06-19T11:50:31;101537.84;;;32.37;27.34
44044;BME280;29709;52.396;16.796;2023-06-19T11:53:44;101530.20;;;32.28;28.07
44044;BME280;29709;52.396;16.796;2023-06-19T11:56:57;101532.51;;;32.31;26.94
44044;BME280;29709;52.396;16.796;2023-06-19T12:00:15;101525.37;;;32.33;27.69
44044;BME280;29709;52.396;16.796;2023-06-19T12:06:57;101524.98;;;32.45;27.54
44044;BME280;29709;52.396;16.796;2023-06-19T12:10:10;101530.28;;;32.57;28.05
44044;BME280;29709;52.396;16.796;2023-06-19T12:13:25;101533.16;;;32.81;28.03
44044;BME280;29709;52.396;16.796;2023-06-19T12:16:38;101531.49;;;33.09;27.54
44044;BME280;29709;52.396;16.796;2023-06-19T12:19:52;101520.61;;;33.40;28.05
44044;BME280;29709;52.396;16.796;2023-06-19T12:23:06;101524.54;;;33.44;27.06
44044;BME280;29709;52.396;16.796;2023-06-19T12:26:19;101520.09;;;33.33;26.14
44044;BME280;29709;52.396;16.796;2023-06-19T12:29:32;101524.71;;;33.28;26.58
44044;BME280;29709;52.396;16.796;2023-06-19T12:32:45;101513.01;;;33.30;26.64
44044;BME280;29709;52.396;16.796;2023-06-19T12:36:02;101518.53;;;33.45;25.44
44044;BME280;29709;52.396;16.796;2023-06-19T12:39:16;101506.85;;;33.47;26.26
44044;BME280;29709;52.396;16.796;2023-06-19T12:42:29;101512.84;;;33.45;24.19
44044;BME280;29709;52.396;16.796;2023-06-19T12:45:43;101510.78;;;33.51;25.66
44044;BME280;29709;52.396;16.796;2023-06-19T12:48:56;101515.75;;;33.16;24.58
44044;BME280;29709;52.396;16.796;2023-06-19T12:52:09;101512.27;;;32.66;24.34
44044;BME280;29709;52.396;16.796;2023-06-19T12:55:23;101515.41;;;32.65;24.08
44044;BME280;29709;52.396;16.796;2023-06-19T12:58:36;101510.36;;;32.57;23.95
44044;BME280;29709;52.396;16.796;2023-06-19T13:01:49;101504.98;;;32.55;24.73
44044;BME280;29709;52.396;16.796;2023-06-19T13:05:02;101521.89;;;32.70;25.30
44044;BME280;29709;52.396;16.796;2023-06-19T13:08:15;101513.35;;;32.70;24.21
44044;BME280;29709;52.396;16.796;2023-06-19T13:11:28;101510.20;;;32.72;24.55
44044;BME280;29709;52.396;16.796;2023-06-19T13:14:42;101504.03;;;32.65;24.44
44044;BME280;29709;52.396;16.796;2023-06-19T13:17:55;101504.27;;;32.68;24.99
44044;BME280;29709;52.396;16.796;2023-06-19T13:21:08;101506.07;;;32.59;24.52
44044;BME280;29709;52.396;16.796;2023-06-19T13:24:21;101499.48;;;32.30;23.53
44044;BME280;29709;52.396;16.796;2023-06-19T13:27:34;101497.30;;;32.16;25.31
44044;BME280;29709;52.396;16.796;2023-06-19T13:30:47;101507.18;;;32.29;24.95
44044;BME280;29709;52.396;16.796;2023-06-19T13:34:00;101499.31;;;32.50;25.40
44044;BME280;29709;52.396;16.796;2023-06-19T13:37:13;101494.03;;;32.67;24.87
44044;BME280;29709;52.396;16.796;2023-06-19T13:40:26;101492.04;;;32.97;25.02
44044;BME280;29709;52.396;16.796;2023-06-19T13:43:40;101485.89;;;33.38;25.51
44044;BME280;29709;52.396;16.796;2023-06-19T13:46:53;101481.03;;;33.38;24.38
44044;BME280;29709;52.396;16.796;2023-06-19T13:50:07;101481.90;;;33.34;24.48
44044;BME280;29709;52.396;16.796;2023-06-19T13:53:21;101484.11;;;33.42;24.95
44044;BME280;29709;52.396;16.796;2023-06-19T13:56:36;101481.80;;;33.44;24.37
44044;BME280;29709;52.396;16.796;2023-06-19T13:59:50;101491.81;;;33.41;24.44
44044;BME280;29709;52.396;16.796;2023-06-19T14:03:04;101476.72;;;33.17;24.54
44044;BME280;29709;52.396;16.796;2023-06-19T14:06:19;101487.38;;;33.06;24.79
44044;BME280;29709;52.396;16.796;2023-06-19T14:12:58;101487.27;;;32.63;24.83
44044;BME280;29709;52.396;16.796;2023-06-19T14:16:11;101482.88;;;32.71;24.57
44044;BME280;29709;52.396;16.796;2023-06-19T14:19:25;101479.07;;;33.10;24.75
44044;BME280;29709;52.396;16.796;2023-06-19T14:22:38;101483.49;;;33.21;23.91
44044;BME280;29709;52.396;16.796;2023-06-19T14:25:52;101486.66;;;32.95;22.75
44044;BME280;29709;52.396;16.796;2023-06-19T14:29:05;101481.85;;;32.91;24.63
44044;BME280;29709;52.396;16.796;2023-06-19T14:32:18;101481.61;;;33.11;23.91
44044;BME280;29709;52.396;16.796;2023-06-19T14:35:31;101490.08;;;32.92;22.44
44044;BME280;29709;52.396;16.796;2023-06-19T14:38:44;101487.85;;;32.89;23.53
44044;BME280;29709;52.396;16.796;2023-06-19T14:41:57;101479.26;;;33.18;23.51
44044;BME280;29709;52.396;16.796;2023-06-19T14:45:10;101489.80;;;33.18;23.92
44044;BME280;29709;52.396;16.796;2023-06-19T14:48:23;101484.54;;;33.06;24.45
44044;BME280;29709;52.396;16.796;2023-06-19T14:51:36;101488.19;;;32.83;24.95
44044;BME280;29709;52.396;16.796;2023-06-19T14:54:50;101481.30;;;32.60;25.69
44044;BME280;29709;52.396;16.796;2023-06-19T14:58:04;101486.33;;;32.39;25.55
44044;BME280;29709;52.396;16.796;2023-06-19T15:01:18;101498.06;;;32.32;25.97
44044;BME280;29709;52.396;16.796;2023-06-19T15:04:31;101496.15;;;32.17;25.61
44044;BME280;29709;52.396;16.796;2023-06-19T15:07:45;101495.66;;;32.10;25.70
44044;BME280;29709;52.396;16.796;2023-06-19T15:10:58;101492.45;;;32.17;25.49
44044;BME280;29709;52.396;16.796;2023-06-19T15:14:11;101494.64;;;32.30;25.75
44044;BME280;29709;52.396;16.796;2023-06-19T15:17:24;101492.08;;;32.34;26.12
44044;BME280;29709;52.396;16.796;2023-06-19T15:20:37;101491.91;;;32.15;25.53
44044;BME280;29709;52.396;16.796;2023-06-19T15:23:54;101490.61;;;31.97;25.70
44044;BME280;29709;52.396;16.796;2023-06-19T15:27:08;101491.91;;;31.71;26.12
44044;BME280;29709;52.396;16.796;2023-06-19T15:30:21;101492.81;;;31.61;26.11
44044;BME280;29709;52.396;16.796;2023-06-19T15:33:35;101493.12;;;31.59;26.56
44044;BME280;29709;52.396;16.796;2023-06-19T15:36:48;101499.20;;;31.38;26.13
44044;BME280;29709;52.396;16.796;2023-06-19T15:40:01;101499.79;;;31.19;26.36
44044;BME280;29709;52.396;16.796;2023-06-19T15:43:15;101498.39;;;31.12;26.54
44044;BME280;29709;52.396;16.796;2023-06-19T15:46:28;101504.39;;;31.00;26.83
44044;BME280;29709;52.396;16.796;2023-06-19T15:49:42;101498.21;;;30.78;27.09
44044;BME280;29709;52.396;16.796;2023-06-19T15:52:55;101498.21;;;30.78;27.42
44044;BME280;29709;52.396;16.796;2023-06-19T15:56:08;101492.80;;;30.81;27.01
44044;BME280;29709;52.396;16.796;2023-06-19T15:59:21;101499.88;;;30.89;27.19
44044;BME280;29709;52.396;16.796;2023-06-19T16:02:35;101494.47;;;30.92;27.06
44044;BME280;29709;52.396;16.796;2023-06-19T16:05:48;101494.77;;;30.96;26.37
44044;BME280;29709;52.396;16.796;2023-06-19T16:09:05;101482.57;;;30.95;26.33
44044;BME280;29709;52.396;16.796;2023-06-19T16:12:18;101485.96;;;30.97;26.68
44044;BME280;29709;52.396;16.796;2023-06-19T16:15:31;101489.33;;;31.04;26.79
44044;BME280;29709;52.396;16.796;2023-06-19T16:18:45;101487.07;;;31.07;26.54
44044;BME280;29709;52.396;16.796;2023-06-19T16:21:58;101497.30;;;30.92;25.82
44044;BME280;29709;52.396;16.796;2023-06-19T16:25:12;101493.06;;;30.85;26.51
44044;BME280;29709;52.396;16.796;2023-06-19T16:28:31;101487.70;;;30.78;26.90
44044;BME280;29709;52.396;16.796;2023-06-19T16:31:44;101488.55;;;30.73;27.10
44044;BME280;29709;52.396;16.796;2023-06-19T16:34:58;101490.01;;;30.66;26.81
44044;BME280;29709;52.396;16.796;2023-06-19T16:38:11;101485.45;;;30.55;27.43
44044;BME280;29709;52.396;16.796;2023-06-19T16:41:24;101488.57;;;30.48;27.76
44044;BME280;29709;52.396;16.796;2023-06-19T16:44:38;101487.16;;;30.45;27.59
44044;BME280;29709;52.396;16.796;2023-06-19T16:47:51;101481.76;;;30.39;27.80
44044;BME280;29709;52.396;16.796;2023-06-19T16:51:04;101475.53;;;30.27;27.84
44044;BME280;29709;52.396;16.796;2023-06-19T16:54:17;101474.10;;;30.19;27.78
44044;BME280;29709;52.396;16.796;2023-06-19T16:57:30;101473.27;;;30.13;28.10
44044;BME280;29709;52.396;16.796;2023-06-19T17:00:45;101470.70;;;30.07;28.51
44044;BME280;29709;52.396;16.796;2023-06-19T17:03:59;101483.14;;;30.06;28.43